sensor_id;sensor_type;location;lat;lon;timestamp;P1;durP1;ratioP1;P2;durP2;ratioP2
67715;SDS011;54508;43.238;25.306;2023-04-03T00:01:14;1.90;;;1.48;;
67715;SDS011;54508;43.238;25.306;2023-04-03T00:03:40;2.00;;;1.60;;
67715;SDS011;54508;43.238;25.306;2023-04-03T00:06:09;1.92;;;1.60;;
67715;SDS011;54508;43.238;25.306;2023-04-03T00:08:36;2.38;;;1.60;;
67715;SDS011;54508;43.238;25.306;2023-04-03T00:11:02;3.15;;;1.65;;
67715;SDS011;54508;43.238;25.306;2023-04-03T00:13:28;5.55;;;1.90;;
67715;SDS011;54508;43.238;25.306;2023-04-03T00:15:54;3.60;;;1.58;;
67715;SDS011;54508;43.238;25.306;2023-04-03T00:18:20;2.10;;;1.80;;
67715;SDS011;54508;43.238;25.306;2023-04-03T00:20:45;2.45;;;1.65;;
67715;SDS011;54508;43.238;25.306;2023-04-03T00:23:11;3.73;;;1.90;;
67715;SDS011;54508;43.238;25.306;2023-04-03T00:25:37;2.40;;;1.70;;
67715;SDS011;54508;43.238;25.306;2023-04-03T00:28:03;3.38;;;1.80;;
67715;SDS011;54508;43.238;25.306;2023-04-03T00:30:29;2.85;;;1.67;;
67715;SDS011;54508;43.238;25.306;2023-04-03T00:32:55;2.37;;;1.73;;
67715;SDS011;54508;43.238;25.306;2023-04-03T00:35:21;2.08;;;1.80;;
67715;SDS011;54508;43.238;25.306;2023-04-03T00:37:47;2.10;;;1.80;;
67715;SDS011;54508;43.238;25.306;2023-04-03T00:40:15;2.35;;;1.70;;
67715;SDS011;54508;43.238;25.306;2023-04-03T00:42:41;2.47;;;1.30;;
67715;SDS011;54508;43.238;25.306;2023-04-03T00:47:48;2.28;;;1.60;;
67715;SDS011;54508;43.238;25.306;2023-04-03T00:50:14;2.25;;;1.52;;
67715;SDS011;54508;43.238;25.306;2023-04-03T00:52:40;5.13;;;1.53;;
67715;SDS011;54508;43.238;25.306;2023-04-03T00:55:06;2.30;;;1.80;;
67715;SDS011;54508;43.238;25.306;2023-04-03T00:57:33;2.25;;;1.70;;
67715;SDS011;54508;43.238;25.306;2023-04-03T01:00:04;3.03;;;2.10;;
67715;SDS011;54508;43.238;25.306;2023-04-03T01:02:34;4.90;;;1.88;;
67715;SDS011;54508;43.238;25.306;2023-04-03T01:04:59;2.10;;;1.60;;
67715;SDS011;54508;43.238;25.306;2023-04-03T01:07:29;3.13;;;1.60;;
67715;SDS011;54508;43.238;25.306;2023-04-03T01:09:56;5.68;;;2.08;;
67715;SDS011;54508;43.238;25.306;2023-04-03T01:12:25;3.38;;;1.92;;
67715;SDS011;54508;43.238;25.306;2023-04-03T01:14:53;3.05;;;1.98;;
67715;SDS011;54508;43.238;25.306;2023-04-03T01:25:35;2.80;;;2.13;;
67715;SDS011;54508;43.238;25.306;2023-04-03T01:28:03;3.40;;;1.88;;
67715;SDS011;54508;43.238;25.306;2023-04-03T01:30:31;2.67;;;2.00;;
67715;SDS011;54508;43.238;25.306;2023-04-03T01:32:58;4.07;;;2.03;;
67715;SDS011;54508;43.238;25.306;2023-04-03T01:35:24;3.00;;;2.20;;
67715;SDS011;54508;43.238;25.306;2023-04-03T01:37:49;2.97;;;2.07;;
67715;SDS011;54508;43.238;25.306;2023-04-03T01:40:15;3.90;;;1.90;;
67715;SDS011;54508;43.238;25.306;2023-04-03T01:42:40;2.35;;;2.08;;
67715;SDS011;54508;43.238;25.306;2023-04-03T01:45:06;3.67;;;2.00;;
67715;SDS011;54508;43.238;25.306;2023-04-03T01:47:32;3.80;;;2.20;;
67715;SDS011;54508;43.238;25.306;2023-04-03T01:49:57;3.85;;;2.30;;
67715;SDS011;54508;43.238;25.306;2023-04-03T01:52:23;2.47;;;2.20;;
67715;SDS011;54508;43.238;25.306;2023-04-03T01:54:50;2.88;;;2.20;;
67715;SDS011;54508;43.238;25.306;2023-04-03T01:57:16;3.50;;;2.50;;
67715;SDS011;54508;43.238;25.306;2023-04-03T01:59:41;2.77;;;2.20;;
67715;SDS011;54508;43.238;25.306;2023-04-03T02:02:07;3.25;;;2.47;;
67715;SDS011;54508;43.238;25.306;2023-04-03T02:04:33;4.90;;;2.37;;
67715;SDS011;54508;43.238;25.306;2023-04-03T02:06:58;3.97;;;2.50;;
67715;SDS011;54508;43.238;25.306;2023-04-03T02:09:24;3.25;;;2.30;;
67715;SDS011;54508;43.238;25.306;2023-04-03T02:11:49;5.77;;;2.57;;
67715;SDS011;54508;43.238;25.306;2023-04-03T02:14:15;4.07;;;2.60;;
67715;SDS011;54508;43.238;25.306;2023-04-03T02:16:40;2.85;;;2.25;;
67715;SDS011;54508;43.238;25.306;2023-04-03T02:19:06;3.47;;;2.60;;
67715;SDS011;54508;43.238;25.306;2023-04-03T02:21:31;3.00;;;2.00;;
67715;SDS011;54508;43.238;25.306;2023-04-03T02:23:57;3.72;;;2.47;;
67715;SDS011;54508;43.238;25.306;2023-04-03T02:26:22;4.03;;;2.90;;
67715;SDS011;54508;43.238;25.306;2023-04-03T02:28:48;2.83;;;2.50;;
67715;SDS011;54508;43.238;25.306;2023-04-03T02:31:13;2.87;;;2.20;;
67715;SDS011;54508;43.238;25.306;2023-04-03T02:33:39;4.05;;;2.90;;
67715;SDS011;54508;43.238;25.306;2023-04-03T02:36:07;3.28;;;2.30;;
67715;SDS011;54508;43.238;25.306;2023-04-03T02:38:33;3.97;;;2.80;;
67715;SDS011;54508;43.238;25.306;2023-04-03T02:41:03;3.55;;;2.42;;
67715;SDS011;54508;43.238;25.306;2023-04-03T02:43:30;4.00;;;2.38;;
67715;SDS011;54508;43.238;25.306;2023-04-03T02:45:55;4.03;;;2.43;;
67715;SDS011;54508;43.238;25.306;2023-04-03T02:48:21;3.07;;;2.30;;
67715;SDS011;54508;43.238;25.306;2023-04-03T02:50:47;3.75;;;2.22;;
67715;SDS011;54508;43.238;25.306;2023-04-03T02:53:12;3.28;;;2.42;;
67715;SDS011;54508;43.238;25.306;2023-04-03T02:55:38;3.00;;;2.55;;
67715;SDS011;54508;43.238;25.306;2023-04-03T02:58:03;2.73;;;2.30;;
67715;SDS011;54508;43.238;25.306;2023-04-03T03:00:29;3.13;;;2.43;;
67715;SDS011;54508;43.238;25.306;2023-04-03T03:02:55;3.50;;;2.35;;
67715;SDS011;54508;43.238;25.306;2023-04-03T03:05:20;5.57;;;2.47;;
67715;SDS011;54508;43.238;25.306;2023-04-03T03:07:46;2.75;;;2.20;;
67715;SDS011;54508;43.238;25.306;2023-04-03T03:10:12;3.13;;;2.37;;
67715;SDS011;54508;43.238;25.306;2023-04-03T03:12:38;5.32;;;2.75;;
67715;SDS011;54508;43.238;25.306;2023-04-03T03:15:03;2.92;;;2.20;;
67715;SDS011;54508;43.238;25.306;2023-04-03T03:17:29;3.87;;;2.40;;
67715;SDS011;54508;43.238;25.306;2023-04-03T03:19:55;3.67;;;2.45;;
67715;SDS011;54508;43.238;25.306;2023-04-03T03:22:20;3.60;;;2.47;;
67715;SDS011;54508;43.238;25.306;2023-04-03T03:24:45;5.20;;;2.47;;
67715;SDS011;54508;43.238;25.306;2023-04-03T03:27:11;3.67;;;2.93;;
67715;SDS011;54508;43.238;25.306;2023-04-03T03:29:37;3.38;;;2.50;;
67715;SDS011;54508;43.238;25.306;2023-04-03T03:32:02;3.47;;;2.60;;
67715;SDS011;54508;43.238;25.306;2023-04-03T03:34:28;3.00;;;2.50;;
67715;SDS011;54508;43.238;25.306;2023-04-03T03:36:53;4.10;;;2.73;;
67715;SDS011;54508;43.238;25.306;2023-04-03T03:39:20;4.28;;;2.53;;
67715;SDS011;54508;43.238;25.306;2023-04-03T03:41:46;2.83;;;2.40;;
67715;SDS011;54508;43.238;25.306;2023-04-03T03:44:11;4.70;;;2.50;;
67715;SDS011;54508;43.238;25.306;2023-04-03T03:46:37;4.47;;;2.77;;
67715;SDS011;54508;43.238;25.306;2023-04-03T03:49:02;3.40;;;2.83;;
67715;SDS011;54508;43.238;25.306;2023-04-03T03:51:27;5.90;;;2.75;;
67715;SDS011;54508;43.238;25.306;2023-04-03T03:53:53;4.60;;;3.10;;
67715;SDS011;54508;43.238;25.306;2023-04-03T03:56:24;4.43;;;2.73;;
67715;SDS011;54508;43.238;25.306;2023-04-03T03:58:50;3.47;;;2.63;;
67715;SDS011;54508;43.238;25.306;2023-04-03T04:01:15;3.17;;;2.30;;
67715;SDS011;54508;43.238;25.306;2023-04-03T04:03:41;4.10;;;2.67;;
67715;SDS011;54508;43.238;25.306;2023-04-03T04:06:07;5.30;;;2.50;;
67715;SDS011;54508;43.238;25.306;2023-04-03T04:08:32;4.40;;;2.70;;
67715;SDS011;54508;43.238;25.306;2023-04-03T04:10:58;4.57;;;2.50;;
67715;SDS011;54508;43.238;25.306;2023-04-03T04:13:23;3.63;;;2.50;;
67715;SDS011;54508;43.238;25.306;2023-04-03T04:15:49;3.73;;;2.53;;
67715;SDS011;54508;43.238;25.306;2023-04-03T04:18:14;14.90;;;2.67;;
67715;SDS011;54508;43.238;25.306;2023-04-03T04:20:40;6.10;;;2.60;;
67715;SDS011;54508;43.238;25.306;2023-04-03T04:23:05;3.93;;;2.30;;
67715;SDS011;54508;43.238;25.306;2023-04-03T04:25:31;4.43;;;2.73;;
67715;SDS011;54508;43.238;25.306;2023-04-03T04:27:57;4.18;;;2.70;;
67715;SDS011;54508;43.238;25.306;2023-04-03T04:30:23;6.77;;;3.00;;
67715;SDS011;54508;43.238;25.306;2023-04-03T04:32:48;4.28;;;2.70;;
67715;SDS011;54508;43.238;25.306;2023-04-03T04:35:14;3.83;;;2.58;;
67715;SDS011;54508;43.238;25.306;2023-04-03T04:37:39;5.53;;;2.50;;
67715;SDS011;54508;43.238;25.306;2023-04-03T04:40:05;3.97;;;2.47;;
67715;SDS011;54508;43.238;25.306;2023-04-03T04:42:31;4.75;;;2.47;;
67715;SDS011;54508;43.238;25.306;2023-04-03T04:44:57;4.00;;;2.40;;
67715;SDS011;54508;43.238;25.306;2023-04-03T04:47:22;5.27;;;2.50;;
67715;SDS011;54508;43.238;25.306;2023-04-03T04:49:47;5.03;;;2.23;;
67715;SDS011;54508;43.238;25.306;2023-04-03T04:52:13;4.03;;;2.17;;
67715;SDS011;54508;43.238;25.306;2023-04-03T04:54:39;3.55;;;2.38;;
67715;SDS011;54508;43.238;25.306;2023-04-03T04:57:05;3.15;;;2.20;;
67715;SDS011;54508;43.238;25.306;2023-04-03T04:59:30;3.08;;;2.22;;
67715;SDS011;54508;43.238;25.306;2023-04-03T05:01:55;5.63;;;2.40;;
67715;SDS011;54508;43.238;25.306;2023-04-03T05:04:21;3.77;;;2.40;;
67715;SDS011;54508;43.238;25.306;2023-04-03T05:06:46;3.93;;;2.97;;
67715;SDS011;54508;43.238;25.306;2023-04-03T05:09:12;9.15;;;3.60;;
67715;SDS011;54508;43.238;25.306;2023-04-03T05:11:38;10.60;;;3.73;;
67715;SDS011;54508;43.238;25.306;2023-04-03T05:14:06;7.90;;;3.45;;
67715;SDS011;54508;43.238;25.306;2023-04-03T05:16:32;4.60;;;3.50;;
67715;SDS011;54508;43.238;25.306;2023-04-03T05:18:58;10.05;;;3.58;;
67715;SDS011;54508;43.238;25.306;2023-04-03T05:21:23;8.90;;;3.90;;
67715;SDS011;54508;43.238;25.306;2023-04-03T05:23:51;13.23;;;5.68;;
67715;SDS011;54508;43.238;25.306;2023-04-03T05:26:16;8.98;;;5.75;;
67715;SDS011;54508;43.238;25.306;2023-04-03T05:28:42;16.83;;;5.80;;
67715;SDS011;54508;43.238;25.306;2023-04-03T05:31:08;9.27;;;4.85;;
67715;SDS011;54508;43.238;25.306;2023-04-03T05:33:33;14.23;;;7.53;;
67715;SDS011;54508;43.238;25.306;2023-04-03T05:36:02;11.07;;;6.60;;
67715;SDS011;54508;43.238;25.306;2023-04-03T05:38:28;12.95;;;4.82;;
67715;SDS011;54508;43.238;25.306;2023-04-03T05:40:54;7.90;;;4.90;;
67715;SDS011;54508;43.238;25.306;2023-04-03T05:43:20;8.83;;;4.70;;
67715;SDS011;54508;43.238;25.306;2023-04-03T05:45:46;15.03;;;6.00;;
67715;SDS011;54508;43.238;25.306;2023-04-03T05:48:12;11.88;;;4.53;;
67715;SDS011;54508;43.238;25.306;2023-04-03T05:50:38;9.83;;;4.50;;
67715;SDS011;54508;43.238;25.306;2023-04-03T05:53:06;13.43;;;5.53;;
67715;SDS011;54508;43.238;25.306;2023-04-03T05:55:32;21.85;;;6.35;;
67715;SDS011;54508;43.238;25.306;2023-04-03T05:57:58;18.07;;;5.03;;
67715;SDS011;54508;43.238;25.306;2023-04-03T06:00:23;30.83;;;8.40;;
67715;SDS011;54508;43.238;25.306;2023-04-03T06:02:49;27.67;;;10.23;;
67715;SDS011;54508;43.238;25.306;2023-04-03T06:05:15;27.70;;;9.10;;
67715;SDS011;54508;43.238;25.306;2023-04-03T06:07:41;19.83;;;9.40;;
67715;SDS011;54508;43.238;25.306;2023-04-03T06:10:06;15.10;;;7.10;;
67715;SDS011;54508;43.238;25.306;2023-04-03T06:12:32;37.00;;;8.73;;
67715;SDS011;54508;43.238;25.306;2023-04-03T06:14:58;21.23;;;6.88;;
67715;SDS011;54508;43.238;25.306;2023-04-03T06:17:23;15.17;;;5.63;;
67715;SDS011;54508;43.238;25.306;2023-04-03T06:19:49;13.53;;;5.70;;
67715;SDS011;54508;43.238;25.306;2023-04-03T06:22:14;14.93;;;5.17;;
67715;SDS011;54508;43.238;25.306;2023-04-03T06:24:40;17.77;;;5.55;;
67715;SDS011;54508;43.238;25.306;2023-04-03T06:27:06;18.73;;;4.88;;
67715;SDS011;54508;43.238;25.306;2023-04-03T06:29:32;14.03;;;5.23;;
67715;SDS011;54508;43.238;25.306;2023-04-03T06:31:58;15.88;;;5.68;;
67715;SDS011;54508;43.238;25.306;2023-04-03T06:34:23;16.40;;;5.43;;
67715;SDS011;54508;43.238;25.306;2023-04-03T06:36:49;14.23;;;4.10;;
67715;SDS011;54508;43.238;25.306;2023-04-03T06:39:16;14.18;;;4.80;;
67715;SDS011;54508;43.238;25.306;2023-04-03T06:41:43;13.73;;;4.47;;
67715;SDS011;54508;43.238;25.306;2023-04-03T06:44:09;20.70;;;5.30;;
67715;SDS011;54508;43.238;25.306;2023-04-03T06:46:36;58.47;;;32.67;;
67715;SDS011;54508;43.238;25.306;2023-04-03T06:49:02;20.70;;;8.47;;
67715;SDS011;54508;43.238;25.306;2023-04-03T06:51:29;13.43;;;7.10;;
67715;SDS011;54508;43.238;25.306;2023-04-03T06:53:55;11.68;;;6.80;;
67715;SDS011;54508;43.238;25.306;2023-04-03T06:56:22;9.65;;;6.15;;
67715;SDS011;54508;43.238;25.306;2023-04-03T06:58:48;9.75;;;5.85;;
67715;SDS011;54508;43.238;25.306;2023-04-03T07:01:16;13.07;;;5.90;;
67715;SDS011;54508;43.238;25.306;2023-04-03T07:03:42;14.95;;;6.40;;
67715;SDS011;54508;43.238;25.306;2023-04-03T07:06:09;14.27;;;5.00;;
67715;SDS011;54508;43.238;25.306;2023-04-03T07:08:36;17.38;;;3.63;;
67715;SDS011;54508;43.238;25.306;2023-04-03T07:11:02;7.75;;;2.78;;
67715;SDS011;54508;43.238;25.306;2023-04-03T07:13:28;6.90;;;2.20;;
67715;SDS011;54508;43.238;25.306;2023-04-03T07:15:54;2.17;;;1.70;;
67715;SDS011;54508;43.238;25.306;2023-04-03T07:18:19;5.55;;;2.10;;
67715;SDS011;54508;43.238;25.306;2023-04-03T07:20:46;8.73;;;2.78;;
67715;SDS011;54508;43.238;25.306;2023-04-03T07:23:12;8.43;;;1.90;;
67715;SDS011;54508;43.238;25.306;2023-04-03T07:25:42;5.40;;;2.40;;
67715;SDS011;54508;43.238;25.306;2023-04-03T07:28:08;6.40;;;2.10;;
67715;SDS011;54508;43.238;25.306;2023-04-03T07:30:34;5.32;;;2.30;;
67715;SDS011;54508;43.238;25.306;2023-04-03T07:33:00;7.03;;;2.00;;
67715;SDS011;54508;43.238;25.306;2023-04-03T07:35:25;6.35;;;2.00;;
67715;SDS011;54508;43.238;25.306;2023-04-03T07:37:51;4.53;;;1.57;;
67715;SDS011;54508;43.238;25.306;2023-04-03T07:40:16;8.17;;;1.93;;
67715;SDS011;54508;43.238;25.306;2023-04-03T07:42:42;4.93;;;1.85;;
67715;SDS011;54508;43.238;25.306;2023-04-03T07:45:08;5.87;;;1.77;;
67715;SDS011;54508;43.238;25.306;2023-04-03T07:47:34;5.88;;;2.25;;
67715;SDS011;54508;43.238;25.306;2023-04-03T07:50:00;10.50;;;1.65;;
67715;SDS011;54508;43.238;25.306;2023-04-03T07:52:26;10.48;;;2.15;;
67715;SDS011;54508;43.238;25.306;2023-04-03T07:54:52;5.97;;;1.92;;
67715;SDS011;54508;43.238;25.306;2023-04-03T07:57:17;6.23;;;1.77;;
67715;SDS011;54508;43.238;25.306;2023-04-03T07:59:43;4.87;;;1.77;;
67715;SDS011;54508;43.238;25.306;2023-04-03T08:02:11;3.90;;;1.65;;
67715;SDS011;54508;43.238;25.306;2023-04-03T08:04:37;5.03;;;2.15;;
67715;SDS011;54508;43.238;25.306;2023-04-03T08:07:03;6.40;;;1.65;;
67715;SDS011;54508;43.238;25.306;2023-04-03T08:09:28;4.80;;;1.83;;
67715;SDS011;54508;43.238;25.306;2023-04-03T08:11:54;4.93;;;1.53;;
67715;SDS011;54508;43.238;25.306;2023-04-03T08:14:19;6.57;;;1.77;;
67715;SDS011;54508;43.238;25.306;2023-04-03T08:16:46;3.58;;;1.65;;
67715;SDS011;54508;43.238;25.306;2023-04-03T08:19:12;3.77;;;1.40;;
67715;SDS011;54508;43.238;25.306;2023-04-03T08:21:39;6.38;;;1.60;;
67715;SDS011;54508;43.238;25.306;2023-04-03T08:24:06;4.90;;;2.05;;
67715;SDS011;54508;43.238;25.306;2023-04-03T08:26:32;9.30;;;2.00;;
67715;SDS011;54508;43.238;25.306;2023-04-03T08:28:57;5.43;;;1.83;;
67715;SDS011;54508;43.238;25.306;2023-04-03T08:31:23;3.23;;;1.80;;
67715;SDS011;54508;43.238;25.306;2023-04-03T08:33:48;4.80;;;1.80;;
67715;SDS011;54508;43.238;25.306;2023-04-03T08:36:18;4.53;;;1.88;;
67715;SDS011;54508;43.238;25.306;2023-04-03T08:38:46;3.00;;;1.67;;
67715;SDS011;54508;43.238;25.306;2023-04-03T08:46:52;4.32;;;1.70;;
67715;SDS011;54508;43.238;25.306;2023-04-03T08:49:43;3.40;;;1.45;;
67715;SDS011;54508;43.238;25.306;2023-04-03T08:52:21;4.30;;;1.52;;
67715;SDS011;54508;43.238;25.306;2023-04-03T08:54:59;4.32;;;1.40;;
67715;SDS011;54508;43.238;25.306;2023-04-03T08:57:28;4.95;;;1.83;;
67715;SDS011;54508;43.238;25.306;2023-04-03T09:02:49;3.05;;;1.50;;
67715;SDS011;54508;43.238;25.306;2023-04-03T09:05:59;4.65;;;1.60;;
67715;SDS011;54508;43.238;25.306;2023-04-03T09:08:07;4.63;;;1.80;;
67715;SDS011;54508;43.238;25.306;2023-04-03T09:10:37;5.20;;;1.80;;
67715;SDS011;54508;43.238;25.306;2023-04-03T09:15:38;6.32;;;1.80;;
67715;SDS011;54508;43.238;25.306;2023-04-03T09:18:13;9.27;;;1.90;;
67715;SDS011;54508;43.238;25.306;2023-04-03T09:23:27;8.35;;;1.48;;
67715;SDS011;54508;43.238;25.306;2023-04-03T09:25:56;1.83;;;1.35;;
67715;SDS011;54508;43.238;25.306;2023-04-03T09:28:27;7.80;;;1.27;;
67715;SDS011;54508;43.238;25.306;2023-04-03T09:30:53;5.68;;;1.60;;
67715;SDS011;54508;43.238;25.306;2023-04-03T09:33:20;3.63;;;1.77;;
67715;SDS011;54508;43.238;25.306;2023-04-03T09:35:47;4.68;;;1.92;;
67715;SDS011;54508;43.238;25.306;2023-04-03T09:41:04;6.10;;;2.70;;
67715;SDS011;54508;43.238;25.306;2023-04-03T09:43:38;4.88;;;2.38;;
67715;SDS011;54508;43.238;25.306;2023-04-03T09:48:49;8.23;;;2.47;;
67715;SDS011;54508;43.238;25.306;2023-04-03T09:51:26;4.38;;;2.03;;
67715;SDS011;54508;43.238;25.306;2023-04-03T09:53:53;7.15;;;2.10;;
67715;SDS011;54508;43.238;25.306;2023-04-03T09:58:47;5.82;;;2.25;;
67715;SDS011;54508;43.238;25.306;2023-04-03T10:06:41;7.03;;;1.90;;
67715;SDS011;54508;43.238;25.306;2023-04-03T10:09:22;6.68;;;1.90;;
67715;SDS011;54508;43.238;25.306;2023-04-03T10:12:02;2.95;;;1.27;;
67715;SDS011;54508;43.238;25.306;2023-04-03T10:14:35;12.85;;;4.03;;
67715;SDS011;54508;43.238;25.306;2023-04-03T10:19:46;10.37;;;6.40;;
67715;SDS011;54508;43.238;25.306;2023-04-03T10:27:29;5.38;;;2.95;;
67715;SDS011;54508;43.238;25.306;2023-04-03T10:30:03;5.78;;;2.30;;
67715;SDS011;54508;43.238;25.306;2023-04-03T10:40:30;33.90;;;24.35;;
67715;SDS011;54508;43.238;25.306;2023-04-03T10:51:01;3.55;;;2.08;;
67715;SDS011;54508;43.238;25.306;2023-04-03T10:56:30;2.55;;;1.73;;
67715;SDS011;54508;43.238;25.306;2023-04-03T10:59:03;8.30;;;1.40;;
67715;SDS011;54508;43.238;25.306;2023-04-03T11:01:44;2.40;;;1.40;;
67715;SDS011;54508;43.238;25.306;2023-04-03T11:04:11;4.55;;;1.38;;
67715;SDS011;54508;43.238;25.306;2023-04-03T11:09:24;5.85;;;1.83;;
67715;SDS011;54508;43.238;25.306;2023-04-03T11:11:53;7.73;;;1.80;;
67715;SDS011;54508;43.238;25.306;2023-04-03T11:14:27;5.18;;;2.10;;
67715;SDS011;54508;43.238;25.306;2023-04-03T11:22:26;7.07;;;2.80;;
67715;SDS011;54508;43.238;25.306;2023-04-03T11:27:41;14.50;;;8.05;;
67715;SDS011;54508;43.238;25.306;2023-04-03T11:30:15;12.40;;;6.65;;
67715;SDS011;54508;43.238;25.306;2023-04-03T11:35:29;8.30;;;3.47;;
67715;SDS011;54508;43.238;25.306;2023-04-03T11:37:56;9.63;;;4.13;;
67715;SDS011;54508;43.238;25.306;2023-04-03T11:40:30;14.63;;;6.72;;
67715;SDS011;54508;43.238;25.306;2023-04-03T11:43:05;22.85;;;14.48;;
67715;SDS011;54508;43.238;25.306;2023-04-03T11:48:45;13.15;;;6.65;;
67715;SDS011;54508;43.238;25.306;2023-04-03T11:50:57;27.43;;;16.57;;
67715;SDS011;54508;43.238;25.306;2023-04-03T11:53:31;19.67;;;12.32;;
67715;SDS011;54508;43.238;25.306;2023-04-03T11:56:03;22.23;;;6.75;;
67715;SDS011;54508;43.238;25.306;2023-04-03T11:59:31;10.63;;;4.72;;
67715;SDS011;54508;43.238;25.306;2023-04-03T12:04:20;5.97;;;3.00;;
67715;SDS011;54508;43.238;25.306;2023-04-03T12:12:22;10.98;;;2.50;;
67715;SDS011;54508;43.238;25.306;2023-04-03T12:14:53;8.75;;;2.10;;
67715;SDS011;54508;43.238;25.306;2023-04-03T12:17:20;3.17;;;1.30;;
67715;SDS011;54508;43.238;25.306;2023-04-03T12:19:49;6.32;;;2.33;;
67715;SDS011;54508;43.238;25.306;2023-04-03T12:22:16;5.60;;;2.70;;
67715;SDS011;54508;43.238;25.306;2023-04-03T12:24:45;3.40;;;2.43;;
67715;SDS011;54508;43.238;25.306;2023-04-03T12:29:47;6.85;;;2.58;;
67715;SDS011;54508;43.238;25.306;2023-04-03T12:43:54;4.22;;;1.90;;
67715;SDS011;54508;43.238;25.306;2023-04-03T12:46:48;12.15;;;2.17;;
67715;SDS011;54508;43.238;25.306;2023-04-03T12:52:04;3.57;;;1.77;;
67715;SDS011;54508;43.238;25.306;2023-04-03T12:54:50;8.20;;;2.03;;
67715;SDS011;54508;43.238;25.306;2023-04-03T12:57:26;3.40;;;1.70;;
67715;SDS011;54508;43.238;25.306;2023-04-03T12:59:55;8.65;;;2.10;;
67715;SDS011;54508;43.238;25.306;2023-04-03T13:04:50;4.18;;;1.60;;
67715;SDS011;54508;43.238;25.306;2023-04-03T13:07:27;10.93;;;2.33;;
67715;SDS011;54508;43.238;25.306;2023-04-03T13:12:53;12.43;;;2.67;;
67715;SDS011;54508;43.238;25.306;2023-04-03T13:15:28;8.70;;;2.17;;
67715;SDS011;54508;43.238;25.306;2023-04-03T13:17:55;8.02;;;2.30;;
67715;SDS011;54508;43.238;25.306;2023-04-03T13:20:25;4.45;;;1.98;;
67715;SDS011;54508;43.238;25.306;2023-04-03T13:23:05;12.52;;;2.10;;
67715;SDS011;54508;43.238;25.306;2023-04-03T13:25:35;15.07;;;2.20;;
67715;SDS011;54508;43.238;25.306;2023-04-03T13:28:02;9.97;;;2.47;;
67715;SDS011;54508;43.238;25.306;2023-04-03T13:30:30;8.45;;;2.60;;
67715;SDS011;54508;43.238;25.306;2023-04-03T13:32:59;16.55;;;3.00;;
67715;SDS011;54508;43.238;25.306;2023-04-03T13:35:27;14.00;;;3.67;;
67715;SDS011;54508;43.238;25.306;2023-04-03T13:37:56;14.48;;;3.40;;
67715;SDS011;54508;43.238;25.306;2023-04-03T13:40:23;16.40;;;8.40;;
67715;SDS011;54508;43.238;25.306;2023-04-03T13:42:58;21.30;;;9.85;;
67715;SDS011;54508;43.238;25.306;2023-04-03T13:45:39;11.85;;;4.70;;
67715;SDS011;54508;43.238;25.306;2023-04-03T13:48:10;5.50;;;2.10;;
67715;SDS011;54508;43.238;25.306;2023-04-03T13:50:50;6.35;;;2.47;;
67715;SDS011;54508;43.238;25.306;2023-04-03T13:53:26;6.33;;;2.70;;
67715;SDS011;54508;43.238;25.306;2023-04-03T13:58:26;4.78;;;2.00;;
67715;SDS011;54508;43.238;25.306;2023-04-03T14:04:10;10.30;;;2.33;;
67715;SDS011;54508;43.238;25.306;2023-04-03T14:06:42;7.50;;;2.30;;
67715;SDS011;54508;43.238;25.306;2023-04-03T14:09:08;12.98;;;2.03;;
67715;SDS011;54508;43.238;25.306;2023-04-03T14:11:33;17.07;;;2.83;;
67715;SDS011;54508;43.238;25.306;2023-04-03T14:14:00;9.18;;;2.53;;
67715;SDS011;54508;43.238;25.306;2023-04-03T14:16:31;8.60;;;2.13;;
67715;SDS011;54508;43.238;25.306;2023-04-03T14:18:57;8.70;;;2.42;;
67715;SDS011;54508;43.238;25.306;2023-04-03T14:21:23;10.20;;;2.13;;
67715;SDS011;54508;43.238;25.306;2023-04-03T14:23:49;7.70;;;2.10;;
67715;SDS011;54508;43.238;25.306;2023-04-03T14:26:19;18.08;;;2.30;;
67715;SDS011;54508;43.238;25.306;2023-04-03T14:28:47;10.07;;;2.28;;
67715;SDS011;54508;43.238;25.306;2023-04-03T14:31:15;7.00;;;2.35;;
67715;SDS011;54508;43.238;25.306;2023-04-03T14:33:41;8.88;;;3.25;;
67715;SDS011;54508;43.238;25.306;2023-04-03T14:36:23;4.15;;;2.30;;
67715;SDS011;54508;43.238;25.306;2023-04-03T14:38:50;8.15;;;2.03;;
67715;SDS011;54508;43.238;25.306;2023-04-03T14:41:18;11.38;;;2.40;;
67715;SDS011;54508;43.238;25.306;2023-04-03T14:43:48;5.40;;;2.70;;
67715;SDS011;54508;43.238;25.306;2023-04-03T14:46:22;5.93;;;2.55;;
67715;SDS011;54508;43.238;25.306;2023-04-03T14:48:51;7.15;;;2.47;;
67715;SDS011;54508;43.238;25.306;2023-04-03T14:51:17;9.70;;;2.17;;
67715;SDS011;54508;43.238;25.306;2023-04-03T14:53:44;7.55;;;2.22;;
67715;SDS011;54508;43.238;25.306;2023-04-03T14:56:21;13.45;;;2.47;;
67715;SDS011;54508;43.238;25.306;2023-04-03T14:58:54;7.30;;;2.40;;
67715;SDS011;54508;43.238;25.306;2023-04-03T15:01:21;7.07;;;2.40;;
67715;SDS011;54508;43.238;25.306;2023-04-03T15:03:46;12.17;;;2.13;;
67715;SDS011;54508;43.238;25.306;2023-04-03T15:06:13;9.63;;;2.53;;
67715;SDS011;54508;43.238;25.306;2023-04-03T15:08:39;13.57;;;2.70;;
67715;SDS011;54508;43.238;25.306;2023-04-03T15:11:06;11.37;;;2.60;;
67715;SDS011;54508;43.238;25.306;2023-04-03T15:13:32;8.63;;;2.40;;
67715;SDS011;54508;43.238;25.306;2023-04-03T15:15:58;10.17;;;3.33;;
67715;SDS011;54508;43.238;25.306;2023-04-03T15:18:24;11.43;;;2.63;;
67715;SDS011;54508;43.238;25.306;2023-04-03T15:20:52;9.55;;;2.80;;
67715;SDS011;54508;43.238;25.306;2023-04-03T15:23:18;13.10;;;2.93;;
67715;SDS011;54508;43.238;25.306;2023-04-03T15:25:47;8.85;;;2.72;;
67715;SDS011;54508;43.238;25.306;2023-04-03T15:31:02;5.50;;;2.40;;
67715;SDS011;54508;43.238;25.306;2023-04-03T15:33:28;7.88;;;2.17;;
67715;SDS011;54508;43.238;25.306;2023-04-03T15:35:53;12.68;;;3.15;;
67715;SDS011;54508;43.238;25.306;2023-04-03T15:38:19;359.80;;;26.73;;
67715;SDS011;54508;43.238;25.306;2023-04-03T15:40:45;469.60;;;43.05;;
67715;SDS011;54508;43.238;25.306;2023-04-03T15:43:12;358.20;;;25.17;;
67715;SDS011;54508;43.238;25.306;2023-04-03T15:45:38;271.88;;;19.70;;
67715;SDS011;54508;43.238;25.306;2023-04-03T15:48:04;217.90;;;17.43;;
67715;SDS011;54508;43.238;25.306;2023-04-03T15:50:31;272.83;;;19.08;;
67715;SDS011;54508;43.238;25.306;2023-04-03T15:52:57;214.10;;;15.95;;
67715;SDS011;54508;43.238;25.306;2023-04-03T15:55:26;214.00;;;17.30;;
67715;SDS011;54508;43.238;25.306;2023-04-03T15:57:56;168.50;;;13.20;;
67715;SDS011;54508;43.238;25.306;2023-04-03T16:00:22;153.20;;;14.52;;
67715;SDS011;54508;43.238;25.306;2023-04-03T16:02:50;149.80;;;11.77;;
67715;SDS011;54508;43.238;25.306;2023-04-03T16:05:18;179.57;;;14.63;;
67715;SDS011;54508;43.238;25.306;2023-04-03T16:07:44;132.20;;;12.80;;
67715;SDS011;54508;43.238;25.306;2023-04-03T16:10:11;142.55;;;12.95;;
67715;SDS011;54508;43.238;25.306;2023-04-03T16:12:38;121.00;;;11.98;;
67715;SDS011;54508;43.238;25.306;2023-04-03T16:15:04;124.75;;;11.20;;
67715;SDS011;54508;43.238;25.306;2023-04-03T16:17:30;118.32;;;12.68;;
67715;SDS011;54508;43.238;25.306;2023-04-03T16:19:57;98.97;;;9.88;;
67715;SDS011;54508;43.238;25.306;2023-04-03T16:22:23;113.43;;;10.93;;
67715;SDS011;54508;43.238;25.306;2023-04-03T16:24:50;96.70;;;9.98;;
67715;SDS011;54508;43.238;25.306;2023-04-03T16:27:16;87.30;;;9.63;;
67715;SDS011;54508;43.238;25.306;2023-04-03T16:29:41;76.57;;;8.07;;
67715;SDS011;54508;43.238;25.306;2023-04-03T16:32:07;101.43;;;9.27;;